Time;durP1;ratioP1;P1;durP2;ratioP2;P2;SDS_P1;SDS_P2;PMS_P1;PMS_P2;Temp;Humidity;BMP_temperature;BMP_pressure;BME280_temperature;BME280_humidity;BME280_pressure;Samples;Min_cycle;Max_cycle;Signal;HPM_P1;HPM_P2
2023/07/09 00:01:39;;;;;;;10.90;6.22;;;;;;;20.36;100.00;93289.00;5048672;28;20029;-71
2023/07/09 00:04:04;;;;;;;6.32;5.20;;;;;;;20.36;100.00;93287.13;5049624;28;20033;-71
2023/07/09 00:06:30;;;;;;;6.05;5.45;;;;;;;20.35;100.00;93258.00;5051631;28;20097;-71
2023/07/09 00:08:55;;;;;;;7.07;5.15;;;;;;;20.27;100.00;93244.09;5051188;28;20481;-71
2023/07/09 00:11:21;;;;;;;9.68;5.93;;;;;;;20.27;100.00;93235.25;5046514;28;20025;-71
2023/07/09 00:13:46;;;;;;;6.13;5.22;;;;;;;20.32;100.00;93232.59;5048798;28;20025;-71
2023/07/09 00:16:16;;;;;;;6.47;5.18;;;;;;;20.33;100.00;93243.03;5052068;28;20032;-71
2023/07/09 00:18:42;;;;;;;6.32;5.13;;;;;;;20.32;100.00;93276.16;5052153;28;20060;-71
2023/07/09 00:21:08;;;;;;;6.78;5.50;;;;;;;20.30;100.00;93286.31;5054850;28;20029;-71
2023/07/09 00:23:33;;;;;;;9.07;5.47;;;;;;;20.25;100.00;93302.31;5051615;28;20036;-71
2023/07/09 00:25:59;;;;;;;7.57;5.22;;;;;;;20.22;100.00;93300.16;5054057;28;20029;-71
2023/07/09 00:28:25;;;;;;;8.40;5.47;;;;;;;20.20;100.00;93262.22;5049836;28;20027;-71
2023/07/09 00:30:50;;;;;;;10.10;5.40;;;;;;;20.21;100.00;93233.66;5050971;28;20490;-72
2023/07/09 00:33:18;;;;;;;6.07;5.45;;;;;;;20.17;100.00;93167.41;5054247;28;20021;-71
2023/07/09 00:35:50;;;;;;;8.32;5.05;;;;;;;20.10;100.00;93124.09;5052291;28;20031;-72
2023/07/09 00:38:21;;;;;;;8.38;5.25;;;;;;;20.02;100.00;93149.47;5051169;28;20473;-71
2023/07/09 00:41:23;;;;;;;7.55;5.25;;;;;;;19.98;100.00;93161.72;5052627;28;20025;-71
2023/07/09 00:43:50;;;;;;;9.32;5.68;;;;;;;19.99;100.00;93163.34;5042123;28;20036;-72
2023/07/09 00:46:26;;;;;;;12.18;5.05;;;;;;;19.97;100.00;93162.78;5046101;28;20029;-72
2023/07/09 00:48:57;;;;;;;8.23;5.70;;;;;;;19.96;100.00;93150.50;5044571;28;20024;-71
2023/07/09 00:51:24;;;;;;;7.32;5.10;;;;;;;19.90;100.00;93165.72;5048171;28;20030;-72
2023/07/09 00:53:53;;;;;;;7.57;5.55;;;;;;;19.86;100.00;93142.47;5050069;28;20061;-72
2023/07/09 00:56:32;;;;;;;11.80;5.63;;;;;;;19.81;100.00;93127.22;5049206;28;20037;-71
2023/07/09 00:59:04;;;;;;;9.15;5.63;;;;;;;19.76;100.00;93122.66;5047898;28;20025;-71
2023/07/09 01:01:30;;;;;;;8.52;5.43;;;;;;;19.75;100.00;93118.38;5042234;28;20078;-71
2023/07/09 01:03:59;;;;;;;7.13;5.80;;;;;;;19.73;100.00;93112.50;5053931;28;20029;-71
2023/07/09 01:06:35;;;;;;;8.70;5.80;;;;;;;19.72;100.00;93100.22;5051439;28;20072;-72
2023/07/09 01:09:03;;;;;;;8.40;5.85;;;;;;;19.72;100.00;93097.56;5044629;28;20029;-71
2023/07/09 01:11:29;;;;;;;6.85;5.78;;;;;;;19.71;100.00;93097.84;5041613;28;20583;-71
2023/07/09 01:13:57;;;;;;;10.20;5.72;;;;;;;19.67;100.00;93048.69;5051886;28;20104;-71
2023/07/09 01:16:27;;;;;;;8.88;6.00;;;;;;;19.65;100.00;93030.31;5044719;28;20032;-71
2023/07/09 01:18:53;;;;;;;7.95;5.57;;;;;;;19.62;100.00;92985.47;5054451;28;20052;-71
2023/07/09 01:21:19;;;;;;;13.23;5.57;;;;;;;19.61;100.00;92941.16;5046340;28;20025;-71
2023/07/09 01:23:47;;;;;;;14.27;5.47;;;;;;;19.67;100.00;92939.28;5048617;28;20032;-71
2023/07/09 01:26:20;;;;;;;10.00;6.60;;;;;;;19.66;100.00;92954.50;5048716;28;20119;-71
2023/07/09 01:28:46;;;;;;;13.60;5.90;;;;;;;19.65;100.00;92968.94;5047154;28;20032;-71
2023/07/09 01:31:13;;;;;;;7.97;5.82;;;;;;;19.65;100.00;92957.44;5052133;28;20029;-71
2023/07/09 01:33:39;;;;;;;7.53;5.32;;;;;;;19.63;100.00;92933.69;5048564;28;20100;-71
2023/07/09 01:36:10;;;;;;;9.68;6.80;;;;;;;19.61;100.00;92898.47;5054208;28;20139;-71
2023/07/09 01:38:36;;;;;;;7.22;6.07;;;;;;;19.56;100.00;92858.44;5051661;28;20035;-71
2023/07/09 01:41:02;;;;;;;9.38;5.82;;;;;;;19.52;100.00;92857.38;5048938;28;20542;-71
2023/07/09 01:43:29;;;;;;;9.45;5.95;;;;;;;19.49;100.00;92865.91;5045507;28;20544;-71
2023/07/09 01:45:57;;;;;;;6.70;5.90;;;;;;;19.47;100.00;92866.19;5052115;28;20071;-71
2023/07/09 01:48:24;;;;;;;7.22;6.00;;;;;;;19.50;100.00;92873.66;5034611;28;20091;-71
2023/07/09 01:50:51;;;;;;;6.95;6.15;;;;;;;19.45;100.00;92885.13;5046205;28;20025;-71
2023/07/09 01:53:24;;;;;;;8.40;6.20;;;;;;;19.40;100.00;92895.78;5049994;28;20108;-71
2023/07/09 01:55:50;;;;;;;8.90;6.00;;;;;;;19.35;100.00;92911.81;5038190;28;20199;-71
2023/07/09 01:58:16;;;;;;;7.30;5.95;;;;;;;19.27;100.00;92918.44;5044897;28;20057;-71
2023/07/09 02:00:42;;;;;;;11.30;5.70;;;;;;;19.22;100.00;92920.31;5053232;28;20067;-71
2023/07/09 02:03:08;;;;;;;9.60;5.72;;;;;;;19.21;100.00;92916.03;5053848;28;20016;-71
2023/07/09 02:05:36;;;;;;;11.75;6.35;;;;;;;19.16;100.00;92925.63;5050444;28;20032;-71
2023/07/09 02:08:02;;;;;;;7.20;5.45;;;;;;;19.12;100.00;92945.88;5052287;28;20489;-71
2023/07/09 02:10:27;;;;;;;7.40;5.95;;;;;;;19.08;100.00;92934.13;5052278;28;21815;-71
2023/07/09 02:12:53;;;;;;;9.02;5.95;;;;;;;19.09;100.00;92935.72;5053521;28;20041;-71
2023/07/09 02:15:18;;;;;;;8.15;6.38;;;;;;;19.10;100.00;92932.00;5050159;28;20045;-71
2023/07/09 02:17:44;;;;;;;7.28;5.93;;;;;;;19.11;100.00;92941.59;5048085;28;20115;-72
2023/07/09 02:20:11;;;;;;;9.15;6.00;;;;;;;19.07;100.00;92951.19;5056877;28;20065;-71
2023/07/09 02:22:38;;;;;;;8.05;5.93;;;;;;;19.06;100.00;92946.91;5037878;28;20072;-71
2023/07/09 02:25:05;;;;;;;7.88;6.25;;;;;;;19.06;100.00;92936.25;5040589;28;20420;-71
2023/07/09 02:27:31;;;;;;;8.68;5.80;;;;;;;19.06;100.00;92928.25;5051143;28;20030;-71
2023/07/09 02:29:57;;;;;;;7.10;5.90;;;;;;;19.03;100.00;92904.78;5051633;28;20029;-71
2023/07/09 02:32:26;;;;;;;8.57;5.82;;;;;;;19.00;100.00;92886.66;5045601;28;20409;-71
2023/07/09 02:34:52;;;;;;;7.20;5.75;;;;;;;18.98;100.00;92881.56;5051416;28;20017;-72
2023/07/09 02:37:24;;;;;;;11.10;5.88;;;;;;;18.98;100.00;92873.59;5057512;28;20017;-71
2023/07/09 02:39:50;;;;;;;9.20;6.28;;;;;;;18.96;100.00;92875.69;5055687;28;20098;-72
2023/07/09 02:42:18;;;;;;;6.65;5.70;;;;;;;18.95;100.00;92887.41;5056679;28;20021;-72
2023/07/09 02:44:44;;;;;;;6.20;5.60;;;;;;;18.92;100.00;92900.47;5058092;28;20092;-71
2023/07/09 02:47:10;;;;;;;8.75;6.00;;;;;;;18.91;100.00;92905.00;5058259;28;20497;-71
2023/07/09 02:49:36;;;;;;;8.43;5.15;;;;;;;18.88;100.00;92903.66;5057295;28;20703;-71
2023/07/09 02:52:02;;;;;;;7.18;5.60;;;;;;;18.84;100.00;92907.91;5056305;28;20032;-71
2023/07/09 02:54:27;;;;;;;8.57;5.47;;;;;;;18.81;100.00;92904.97;5056209;28;20041;-71
2023/07/09 02:56:53;;;;;;;7.78;5.47;;;;;;;18.81;100.00;92897.75;5058187;28;20052;-72
2023/07/09 02:59:19;;;;;;;9.05;5.60;;;;;;;18.80;100.00;92892.72;5057416;28;20481;-71
2023/07/09 03:01:47;;;;;;;6.22;5.28;;;;;;;18.79;100.00;92875.09;5057506;28;20020;-72
2023/07/09 03:04:12;;;;;;;6.57;5.75;;;;;;;18.80;100.00;92828.75;5060424;28;20735;-72
2023/07/09 03:06:38;;;;;;;7.28;5.43;;;;;;;18.79;100.00;92782.63;5064545;28;20024;-71
2023/07/09 03:09:04;;;;;;;6.47;5.75;;;;;;;18.76;100.00;92767.97;5057451;28;20043;-71
2023/07/09 03:11:31;;;;;;;6.60;5.50;;;;;;;18.74;100.00;92748.78;5057022;28;20029;-71
2023/07/09 03:13:58;;;;;;;7.03;5.72;;;;;;;18.73;100.00;92741.84;5052815;28;20020;-71
2023/07/09 03:16:23;;;;;;;6.10;5.32;;;;;;;18.70;100.00;92752.25;5048161;28;20083;-71
2023/07/09 03:18:48;;;;;;;9.32;5.80;;;;;;;18.71;100.00;92764.53;5053985;28;20473;-71
2023/07/09 03:21:14;;;;;;;10.13;6.00;;;;;;;18.73;100.00;92773.03;5065239;28;20081;-71
2023/07/09 03:23:41;;;;;;;7.32;6.00;;;;;;;18.75;100.00;92771.69;5055869;28;20134;-71
2023/07/09 03:26:06;;;;;;;7.82;5.82;;;;;;;18.70;100.00;92778.91;5059671;28;20069;-72
2023/07/09 03:28:32;;;;;;;11.20;6.82;;;;;;;18.63;100.00;92802.31;5058019;28;20103;-71
2023/07/09 03:30:57;;;;;;;6.95;6.35;;;;;;;18.59;100.00;93247.75;5055596;28;20080;-72
2023/07/09 03:33:24;;;;;;;11.15;6.38;;;;;;;18.59;100.00;93253.09;5056882;28;20548;-72
2023/07/09 03:35:50;;;;;;;8.85;6.70;;;;;;;18.55;100.00;93273.31;5056442;28;20017;-71
2023/07/09 03:38:16;;;;;;;10.38;6.15;;;;;;;18.52;100.00;93281.81;5057122;28;20056;-71
2023/07/09 03:40:41;;;;;;;14.18;6.00;;;;;;;18.46;100.00;93293.47;5043539;28;20021;-71
2023/07/09 03:43:08;;;;;;;6.72;5.65;;;;;;;18.40;100.00;93307.75;5056681;28;20605;-71
2023/07/09 03:45:35;;;;;;;9.77;6.05;;;;;;;18.32;100.00;93309.81;5054794;28;20052;-71
2023/07/09 03:48:01;;;;;;;10.90;5.68;;;;;;;18.27;100.00;93309.78;5045376;28;20029;-71
2023/07/09 03:50:26;;;;;;;8.00;6.13;;;;;;;18.13;100.00;93290.69;5053086;28;20500;-72
2023/07/09 03:52:52;;;;;;;10.02;6.25;;;;;;;18.01;100.00;93285.47;5056667;28;20580;-71
2023/07/09 03:55:18;;;;;;;9.77;6.03;;;;;;;18.10;100.00;93227.28;5055866;28;20049;-71
2023/07/09 03:57:43;;;;;;;11.45;6.40;;;;;;;18.16;100.00;93185.53;5048749;28;20029;-71
2023/07/09 04:00:12;;;;;;;8.13;5.68;;;;;;;18.16;100.00;93175.72;5051016;28;20569;-71
2023/07/09 04:02:38;;;;;;;8.60;6.00;;;;;;;18.15;100.00;93183.94;5056840;28;20025;-71
2023/07/09 04:05:04;;;;;;;11.05;6.00;;;;;;;18.20;100.00;93191.97;5051316;28;20041;-71
2023/07/09 04:07:30;;;;;;;8.07;6.10;;;;;;;18.18;100.00;93205.56;5056550;28;20086;-72
2023/07/09 04:09:55;;;;;;;11.02;6.03;;;;;;;18.16;100.00;93238.78;5053486;28;20040;-71
2023/07/09 04:12:20;;;;;;;8.65;6.25;;;;;;;18.16;100.00;93244.94;5054933;28;20107;-71
2023/07/09 04:14:46;;;;;;;8.98;6.05;;;;;;;18.15;100.00;93263.81;5056107;28;20029;-71
2023/07/09 04:17:11;;;;;;;8.13;6.20;;;;;;;18.15;100.00;93251.31;5054382;28;20752;-71
2023/07/09 04:19:37;;;;;;;9.68;6.82;;;;;;;18.15;100.00;93242.50;5056993;28;20025;-71
2023/07/09 04:22:02;;;;;;;9.68;5.93;;;;;;;18.10;100.00;93218.50;5055229;28;20029;-71
2023/07/09 04:24:28;;;;;;;9.80;5.65;;;;;;;18.14;100.00;93193.81;5056314;28;20056;-72
2023/07/09 04:26:56;;;;;;;10.45;6.68;;;;;;;18.18;100.00;93194.91;5058003;28;20028;-71
2023/07/09 04:29:22;;;;;;;7.88;5.68;;;;;;;18.22;100.00;93205.06;5055804;28;20078;-71
2023/07/09 04:31:47;;;;;;;7.72;5.47;;;;;;;18.24;100.00;93230.38;5045474;28;20029;-72
2023/07/09 04:34:13;;;;;;;6.90;5.35;;;;;;;18.22;100.00;93213.81;5053938;28;20032;-71
2023/07/09 04:36:39;;;;;;;10.68;5.63;;;;;;;18.22;100.00;93210.38;5055382;28;20021;-71
2023/07/09 04:39:04;;;;;;;9.82;6.20;;;;;;;18.28;100.00;93202.19;5054281;28;20112;-72
2023/07/09 04:41:30;;;;;;;9.40;5.70;;;;;;;18.30;100.00;93197.41;5055622;28;20044;-72
2023/07/09 04:43:55;;;;;;;6.13;5.25;;;;;;;18.36;100.00;93189.47;5035508;28;20027;-71
2023/07/09 04:46:21;;;;;;;7.90;5.97;;;;;;;18.37;100.00;93210.53;5044985;28;20089;-72
2023/07/09 04:48:46;;;;;;;6.25;5.65;;;;;;;18.41;100.00;93234.78;5043825;28;20027;-71
2023/07/09 04:51:11;;;;;;;8.57;6.05;;;;;;;18.44;100.00;93242.28;5054838;28;20412;-71
2023/07/09 04:53:37;;;;;;;7.75;5.90;;;;;;;18.47;100.00;93265.78;5053810;28;20477;-72
2023/07/09 04:56:02;;;;;;;11.43;5.60;;;;;;;18.45;100.00;93284.66;5055267;28;20725;-72
2023/07/09 04:58:29;;;;;;;8.98;5.75;;;;;;;18.43;100.00;93299.28;5054426;28;20025;-72
2023/07/09 05:00:59;;;;;;;8.82;6.22;;;;;;;18.46;100.00;93301.47;5053518;28;20028;-71
2023/07/09 05:03:25;;;;;;;7.53;6.03;;;;;;;18.49;100.00;93305.47;5054391;28;20032;-71
2023/07/09 05:05:50;;;;;;;7.55;5.97;;;;;;;18.49;100.00;93298.28;5050677;28;20031;-72
2023/07/09 05:08:17;;;;;;;10.90;5.85;;;;;;;18.54;100.00;93258.38;5060393;28;20053;-72
2023/07/09 05:10:44;;;;;;;9.18;5.85;;;;;;;18.54;100.00;93228.25;5054977;28;20048;-71
2023/07/09 05:13:10;;;;;;;10.18;6.28;;;;;;;18.55;100.00;93225.34;5055325;28;20024;-72
2023/07/09 05:15:39;;;;;;;7.22;5.40;;;;;;;18.66;100.00;93220.09;5054890;28;20525;-72
2023/07/09 05:18:04;;;;;;;8.18;5.97;;;;;;;18.75;100.00;93199.94;5053400;28;20033;-72
2023/07/09 05:20:30;;;;;;;8.43;5.93;;;;;;;18.83;100.00;93182.69;5057649;28;20020;-71
2023/07/09 05:22:55;;;;;;;7.97;5.95;;;;;;;18.93;100.00;93145.44;5054375;28;20031;-72
2023/07/09 05:25:21;;;;;;;6.15;5.43;;;;;;;18.99;100.00;93152.44;5049475;28;20053;-72
2023/07/09 05:27:46;;;;;;;8.32;6.97;;;;;;;19.09;100.00;93159.69;5057528;28;20111;-72
2023/07/09 05:30:12;;;;;;;7.90;5.75;;;;;;;19.18;100.00;93178.69;5050729;28;20737;-72
2023/07/09 05:32:38;;;;;;;8.65;6.18;;;;;;;19.28;100.00;93223.28;5054635;28;20494;-72
2023/07/09 05:35:03;;;;;;;6.95;6.28;;;;;;;19.43;100.00;93255.41;5053963;28;20504;-72
2023/07/09 05:37:30;;;;;;;8.75;6.13;;;;;;;19.59;100.00;93280.31;5054611;28;20025;-71
2023/07/09 05:39:56;;;;;;;6.85;5.57;;;;;;;19.73;100.00;93309.22;5054418;28;20504;-72
2023/07/09 05:42:21;;;;;;;8.50;6.15;;;;;;;19.82;100.00;93411.00;5054945;28;20080;-72
2023/07/09 05:44:47;;;;;;;6.45;5.78;;;;;;;19.91;100.00;93510.94;5054072;28;20024;-72
2023/07/09 05:47:13;;;;;;;8.25;6.65;;;;;;;20.03;100.00;93557.00;5053868;28;20035;-72
2023/07/09 05:49:39;;;;;;;8.82;5.53;;;;;;;20.22;100.00;93598.53;5053912;28;20052;-72
2023/07/09 05:52:05;;;;;;;9.25;5.43;;;;;;;20.39;100.00;93633.16;5054001;28;20087;-72
2023/07/09 05:54:31;;;;;;;9.13;6.03;;;;;;;20.50;100.00;93637.53;5044325;28;20049;-72
2023/07/09 05:56:57;;;;;;;11.95;6.45;;;;;;;20.59;100.00;93651.25;5054106;28;20413;-71
2023/07/09 05:59:22;;;;;;;9.65;5.65;;;;;;;20.74;100.00;93659.38;5045052;28;20123;-72
2023/07/09 06:01:48;;;;;;;8.32;5.90;;;;;;;20.80;100.00;93686.97;5053605;28;20032;-72
2023/07/09 06:04:13;;;;;;;8.68;5.85;;;;;;;20.81;100.00;93738.63;5049379;28;20029;-70
2023/07/09 06:06:41;;;;;;;7.10;5.40;;;;;;;20.79;100.00;93776.25;5049022;28;20793;-72
2023/07/09 06:09:07;;;;;;;8.25;6.13;;;;;;;20.77;100.00;93813.13;5052729;28;20029;-72
2023/07/09 06:11:33;;;;;;;7.65;6.03;;;;;;;20.74;100.00;93875.13;5053206;28;20025;-72
2023/07/09 06:13:59;;;;;;;6.07;5.47;;;;;;;20.78;100.00;93883.44;5054097;28;20032;-71
2023/07/09 06:16:27;;;;;;;8.32;6.47;;;;;;;20.97;100.00;93921.41;5053496;28;20028;-72
2023/07/09 06:18:53;;;;;;;6.68;5.40;;;;;;;21.10;100.00;93971.03;5054212;28;20437;-72
2023/07/09 06:21:19;;;;;;;8.48;5.82;;;;;;;21.23;100.00;94029.53;5052634;28;20051;-72
2023/07/09 06:23:45;;;;;;;8.55;5.32;;;;;;;21.39;100.00;94085.91;5049853;28;20025;-72
2023/07/09 06:26:11;;;;;;;8.35;5.70;;;;;;;21.54;100.00;94123.56;5052548;28;20016;-72
2023/07/09 06:28:36;;;;;;;6.43;5.50;;;;;;;21.72;100.00;94168.00;5053917;28;20066;-72
2023/07/09 06:31:02;;;;;;;8.50;5.40;;;;;;;21.91;100.00;94194.47;5053673;28;21297;-71
2023/07/09 06:33:28;;;;;;;7.82;4.90;;;;;;;22.00;100.00;94213.59;5052980;28;20536;-72
2023/07/09 06:35:59;;;;;;;5.95;5.38;;;;;;;22.12;100.00;94230.34;5049193;28;20028;-71
2023/07/09 06:38:26;;;;;;;6.25;5.22;;;;;;;22.28;100.00;94198.34;5053323;28;20017;-67
2023/07/09 06:40:52;;;;;;;8.07;5.53;;;;;;;22.56;100.00;94150.94;5053305;28;20055;-67
2023/07/09 06:43:18;;;;;;;6.15;5.50;;;;;;;22.83;100.00;94120.56;5053283;28;20028;-67
2023/07/09 06:45:55;;;;;;;7.03;5.00;;;;;;;23.17;100.00;94129.09;5047778;28;20535;-68
2023/07/09 06:48:20;;;;;;;10.15;5.60;;;;;;;23.38;100.00;94105.09;5052713;28;20021;-72
2023/07/09 06:50:46;;;;;;;7.80;5.15;;;;;;;23.70;100.00;94157.06;5051990;28;20515;-72
2023/07/09 06:53:12;;;;;;;6.90;5.03;;;;;;;23.95;100.00;94207.38;5052364;28;20103;-67
2023/07/09 06:55:38;;;;;;;9.15;5.00;;;;;;;24.29;100.00;94252.72;5053396;28;20500;-72
2023/07/09 06:58:06;;;;;;;7.40;5.25;;;;;;;24.51;100.00;94304.69;5053039;28;20033;-75
2023/07/09 07:00:34;;;;;;;6.30;5.00;;;;;;;24.80;100.00;94369.66;5052349;28;20033;-74
2023/07/09 07:02:59;;;;;;;7.68;5.38;;;;;;;24.95;100.00;94435.38;5051447;28;20079;-74
2023/07/09 07:05:24;;;;;;;8.75;4.88;;;;;;;25.10;100.00;94475.81;5049488;28;20021;-74
2023/07/09 07:07:50;;;;;;;9.82;5.20;;;;;;;25.28;100.00;94495.25;5053363;28;20124;-74
2023/07/09 07:10:15;;;;;;;6.88;4.97;;;;;;;25.49;100.00;94481.88;5050787;28;20501;-74
2023/07/09 07:12:47;;;;;;;8.45;4.57;;;;;;;25.84;100.00;94507.28;5052294;28;20509;-73
2023/07/09 07:15:15;;;;;;;9.43;4.93;;;;;;;26.09;100.00;94494.88;5054058;28;20120;-75
2023/07/09 07:17:41;;;;;;;9.45;5.53;;;;;;;26.25;100.00;94501.94;5048040;28;20078;-75
2023/07/09 07:20:09;;;;;;;6.97;4.45;;;;;;;26.51;100.00;94449.81;5054331;28;20131;-74
2023/07/09 07:22:34;;;;;;;7.25;4.43;;;;;;;26.78;100.00;94421.69;5065865;28;20035;-76
2023/07/09 07:24:59;;;;;;;6.43;4.43;;;;;;;26.99;100.00;94408.94;5051612;28;20033;-73
2023/07/09 07:27:25;;;;;;;9.32;5.32;;;;;;;27.16;100.00;94422.09;5057364;28;20090;-78
2023/07/09 07:29:50;;;;;;;7.53;4.60;;;;;;;27.23;100.00;94446.91;5053413;28;20033;-79
2023/07/09 07:32:16;;;;;;;6.57;4.97;;;;;;;27.06;100.00;94441.84;5052950;28;20037;-75
2023/07/09 07:34:41;;;;;;;5.07;4.00;;;;;;;27.33;100.00;94421.75;5056743;28;20028;-77
2023/07/09 07:37:06;;;;;;;5.43;4.75;;;;;;;27.51;100.00;94432.97;5048797;28;20098;-72
2023/07/09 07:39:32;;;;;;;11.75;5.30;;;;;;;27.74;100.00;94461.22;5049652;28;20040;-77
2023/07/09 07:42:00;;;;;;;11.77;4.63;;;;;;;27.86;100.00;94501.44;5051581;28;20125;-73
2023/07/09 07:44:25;;;;;;;5.97;4.95;;;;;;;28.00;100.00;94467.25;5061338;28;20037;-73
2023/07/09 07:46:50;;;;;;;6.35;5.07;;;;;;;28.29;100.00;94466.50;5051291;28;20618;-73
2023/07/09 07:49:16;;;;;;;6.32;4.32;;;;;;;28.05;100.00;94565.69;5054949;28;20036;-74
2023/07/09 07:51:42;;;;;;;6.40;4.43;;;;;;;28.15;100.00;94595.34;5058114;28;20052;-73
2023/07/09 07:54:09;;;;;;;5.97;4.53;;;;;;;28.38;100.00;94593.88;5055036;28;20075;-73
2023/07/09 07:56:36;;;;;;;12.32;5.05;;;;;;;28.53;100.00;94614.59;5060736;28;20105;-72
2023/07/09 07:59:02;;;;;;;5.28;4.68;;;;;;;28.60;100.00;94682.75;5051254;28;20032;-74
2023/07/09 08:01:28;;;;;;;7.25;4.57;;;;;;;28.77;100.00;94673.44;5051052;28;20025;-72
2023/07/09 08:03:54;;;;;;;19.30;7.45;;;;;;;28.93;100.00;94663.31;5050972;28;20194;-73
2023/07/09 08:06:20;;;;;;;29.23;14.80;;;;;;;29.10;100.00;94711.69;5038154;28;20108;-72
2023/07/09 08:08:46;;;;;;;9.20;5.63;;;;;;;28.98;100.00;94724.78;5054801;28;20477;-72
2023/07/09 08:11:11;;;;;;;18.90;10.30;;;;;;;28.83;100.00;94701.31;5054110;28;20151;-73
2023/07/09 08:13:38;;;;;;;65.28;17.98;;;;;;;29.06;100.00;94675.38;5055872;28;20108;-73
2023/07/09 08:16:05;;;;;;;66.10;28.65;;;;;;;29.40;100.00;94609.50;5052330;28;20036;-73
2023/07/09 08:18:30;;;;;;;13.23;6.88;;;;;;;29.80;100.00;94592.25;5052950;28;20029;-73
2023/07/09 08:20:56;;;;;;;7.47;4.63;;;;;;;30.01;100.00;94653.31;5054271;28;20024;-72
2023/07/09 08:23:21;;;;;;;7.85;4.28;;;;;;;29.63;100.00;94679.50;5055171;28;20075;-72
2023/07/09 08:25:54;;;;;;;10.63;4.63;;;;;;;29.69;100.00;94687.28;5055703;28;20025;-72
2023/07/09 08:28:19;;;;;;;5.25;4.25;;;;;;;29.80;100.00;94763.13;5057334;28;20025;-71
2023/07/09 08:30:45;;;;;;;7.57;4.07;;;;;;;29.93;100.00;94748.84;5055169;28;20496;-70
2023/07/09 08:33:10;;;;;;;7.47;5.13;;;;;;;29.94;100.00;94722.53;5052955;28;20086;-71
2023/07/09 08:35:35;;;;;;;9.52;4.10;;;;;;;29.71;100.00;94695.94;5053401;28;20768;-71
2023/07/09 08:38:01;;;;;;;7.88;4.55;;;;;;;29.72;100.00;94669.63;5055506;28;20111;-71
2023/07/09 08:40:26;;;;;;;4.90;4.18;;;;;;;30.09;100.00;94604.91;5054202;28;20573;-71
2023/07/09 08:43:11;;;;;;;5.65;4.30;;;;;;;30.46;100.00;94711.88;5055033;28;20517;-72
2023/07/09 08:45:46;;;;;;;4.38;3.92;;;;;;;30.64;100.00;94701.34;5038437;28;20573;-71
2023/07/09 08:48:31;;;;;;;7.13;4.13;;;;;;;30.74;100.00;94706.63;5053333;28;20037;-71
2023/07/09 08:51:07;;;;;;;6.85;3.97;;;;;;;30.90;100.00;94753.38;5047755;28;20047;-72
2023/07/09 08:53:50;;;;;;;8.10;4.43;;;;;;;30.89;100.00;94750.97;5054542;28;20108;-70
2023/07/09 08:56:17;;;;;;;5.22;3.90;;;;;;;30.63;100.00;94767.63;5054210;28;20563;-71
2023/07/09 08:58:44;;;;;;;5.95;4.22;;;;;;;30.77;100.00;94822.81;5055345;28;20765;-70
2023/07/09 09:01:19;;;;;;;6.15;3.97;;;;;;;30.90;100.00;94785.97;5054716;28;20071;-69
2023/07/09 09:03:48;;;;;;;7.55;4.47;;;;;;;31.06;100.00;94818.34;5052140;28;20634;-71
2023/07/09 09:06:17;;;;;;;5.63;4.15;;;;;;;31.06;100.00;94856.41;5044216;28;20033;-71
2023/07/09 09:09:19;;;;;;;7.38;4.43;;;;;;;30.99;100.00;94808.66;5053956;28;20108;-70
2023/07/09 09:11:59;;;;;;;5.55;4.30;;;;;;;31.01;100.00;94786.63;5054438;28;20115;-72
2023/07/09 09:14:32;;;;;;;8.93;4.25;;;;;;;31.09;100.00;94825.91;5052907;28;20032;-72
2023/07/09 09:16:59;;;;;;;7.80;4.00;;;;;;;31.37;100.00;94774.41;5054490;28;20031;-72
2023/07/09 09:19:38;;;;;;;6.30;4.10;;;;;;;31.61;100.00;94817.81;5059700;28;20100;-72
2023/07/09 09:22:13;;;;;;;4.85;4.22;;;;;;;31.53;100.00;94879.13;5052606;28;20017;-73
2023/07/09 09:25:16;;;;;;;9.93;4.35;;;;;;;31.43;100.00;94749.56;5054970;28;20037;-70
2023/07/09 09:27:42;;;;;;;5.28;4.43;;;;;;;31.47;100.00;94725.31;5049722;28;20052;-69
2023/07/09 09:30:27;;;;;;;7.35;4.05;;;;;;;31.79;100.00;94766.41;5050739;28;20037;-69
2023/07/09 09:33:01;;;;;;;8.32;5.32;;;;;;;31.56;100.00;94779.81;5051632;28;20029;-69
2023/07/09 09:35:33;;;;;;;6.85;4.43;;;;;;;31.66;100.00;94803.31;5053970;28;20024;-68
2023/07/09 09:37:59;;;;;;;5.65;4.35;;;;;;;31.47;100.00;94861.28;5052818;28;20044;-69
2023/07/09 09:40:28;;;;;;;7.88;4.63;;;;;;;31.80;100.00;94789.78;5053671;28;20037;-68
2023/07/09 09:42:56;;;;;;;8.73;5.03;;;;;;;31.80;100.00;94816.97;5053908;28;20017;-69
2023/07/09 09:45:37;;;;;;;9.50;4.90;;;;;;;32.08;100.00;94806.94;5045378;28;20463;-69
2023/07/09 09:48:13;;;;;;;8.63;5.00;;;;;;;31.88;100.00;94780.13;5040933;28;20025;-69
2023/07/09 09:50:40;;;;;;;6.28;4.38;;;;;;;31.71;100.00;94814.88;5042830;28;20409;-68
2023/07/09 09:53:08;;;;;;;9.10;4.63;;;;;;;31.66;100.00;94752.44;5047875;28;20032;-69
2023/07/09 09:55:34;;;;;;;6.60;4.40;;;;;;;32.18;100.00;94750.69;5046900;28;20113;-69
2023/07/09 09:58:02;;;;;;;10.13;4.50;;;;;;;32.01;100.00;94788.28;5052476;28;20033;-69
2023/07/09 10:00:29;;;;;;;7.35;4.30;;;;;;;31.98;100.00;94753.50;5048606;28;20029;-71
2023/07/09 10:03:06;;;;;;;8.40;4.80;;;;;;;32.28;100.00;94762.16;5048212;28;20057;-70
2023/07/09 10:05:57;;;;;;;6.82;4.68;;;;;;;32.20;100.00;94787.38;5051382;28;20064;-70
2023/07/09 10:08:26;;;;;;;6.05;4.57;;;;;;;32.28;100.00;94762.16;5052953;28;20041;-69
2023/07/09 10:10:56;;;;;;;6.28;4.82;;;;;;;32.54;100.00;94742.59;5054431;28;20118;-71
2023/07/09 10:13:38;;;;;;;5.60;4.32;;;;;;;32.80;100.00;94801.97;5052485;28;20110;-68
2023/07/09 10:16:18;;;;;;;8.77;4.80;;;;;;;32.53;100.00;94756.53;5053751;28;20037;-69
2023/07/09 10:19:08;;;;;;;6.07;4.45;;;;;;;32.68;100.00;94790.81;5053099;28;20096;-68
2023/07/09 10:22:10;;;;;;;7.65;4.40;;;;;;;32.65;100.00;94799.59;5052364;28;20032;-69
2023/07/09 10:24:55;;;;;;;8.30;4.82;;;;;;;32.66;100.00;94730.38;5053544;28;20478;-70
2023/07/09 10:27:43;;;;;;;8.02;4.25;;;;;;;32.61;100.00;94682.25;5042060;28;20033;-71
2023/07/09 10:30:33;;;;;;;10.68;4.65;;;;;;;33.28;100.00;94619.91;5044483;28;20503;-70
2023/07/09 10:33:41;;;;;;;9.07;5.85;;;;;;;33.57;100.00;94705.88;5048735;28;20033;-72
2023/07/09 10:36:53;;;;;;;7.30;3.80;;;;;;;33.90;100.00;94732.81;5038475;28;20037;-70
2023/07/09 10:39:33;;;;;;;5.72;3.85;;;;;;;33.52;100.00;94746.94;5050681;28;20036;-70
2023/07/09 10:42:01;;;;;;;6.85;4.25;;;;;;;33.56;100.00;94748.72;5053342;28;20013;-68
2023/07/09 10:44:38;;;;;;;4.03;3.58;;;;;;;33.45;100.00;94752.00;5053361;28;20084;-71
2023/07/09 10:47:28;;;;;;;7.07;4.50;;;;;;;33.51;100.00;94705.22;5049924;28;20071;-71
2023/07/09 10:49:55;;;;;;;7.78;3.90;;;;;;;33.58;100.00;94727.38;5048483;28;20028;-70
2023/07/09 10:52:32;;;;;;;7.68;4.32;;;;;;;33.66;100.00;94760.50;5053051;28;20401;-71
2023/07/09 10:55:13;;;;;;;8.88;3.85;;;;;;;34.07;100.00;94750.44;5048594;28;20067;-70
2023/07/09 10:57:54;;;;;;;5.78;3.90;;;;;;;33.91;100.00;94742.63;5050912;28;20184;-70
2023/07/09 11:00:22;;;;;;;6.53;4.60;;;;;;;34.22;100.00;94768.28;5056240;28;20144;-69
2023/07/09 11:02:58;;;;;;;7.15;4.43;;;;;;;34.09;100.00;94778.22;5051760;28;20513;-69
2023/07/09 11:05:23;;;;;;;7.25;4.22;;;;;;;33.83;100.00;94771.50;5055259;28;20013;-70
2023/07/09 11:07:56;;;;;;;6.35;4.18;;;;;;;33.96;100.00;94723.44;5055991;28;20785;-68
2023/07/09 11:10:28;;;;;;;5.57;4.23;;;;;;;34.19;100.00;94802.53;5048461;28;20025;-69
2023/07/09 11:13:03;;;;;;;7.13;4.75;;;;;;;34.11;100.00;94674.94;5052314;28;20280;-68
2023/07/09 11:15:37;;;;;;;28.85;5.57;;;;;;;34.55;100.00;94755.06;5044354;28;20111;-71
2023/07/09 11:18:06;;;;;;;6.88;4.18;;;;;;;34.43;100.00;94665.53;5058823;28;20029;-71
2023/07/09 11:20:35;;;;;;;6.22;4.28;;;;;;;34.62;100.00;94688.25;5053857;28;20059;-71
2023/07/09 11:23:17;;;;;;;5.25;4.30;;;;;;;34.67;100.00;94710.72;5056067;28;20756;-72
2023/07/09 11:25:45;;;;;;;8.15;4.28;;;;;;;34.55;100.00;94522.84;5057032;28;20049;-72
2023/07/09 11:28:11;;;;;;;5.43;4.28;;;;;;;34.77;100.00;94551.09;5052951;28;20097;-71
2023/07/09 11:30:51;;;;;;;5.78;3.92;;;;;;;34.88;100.00;94674.56;5048021;28;20021;-72
2023/07/09 11:33:26;;;;;;;7.63;4.78;;;;;;;35.32;100.00;94625.28;5055702;28;20052;-69